createdAt,value
2018-06-22T00:00:36.689Z,15.38
2018-06-22T00:01:36.636Z,15.31
2018-06-22T00:02:36.628Z,15.25
2018-06-22T00:03:36.653Z,15.25
2018-06-22T00:04:36.628Z,15.25
2018-06-22T00:05:36.640Z,15.25
2018-06-22T00:06:36.657Z,15.31
2018-06-22T00:07:36.612Z,15.38
2018-06-22T00:08:36.699Z,15.38
2018-06-22T00:09:36.629Z,15.38
2018-06-22T00:10:36.673Z,15.38
2018-06-22T00:11:36.638Z,15.38
2018-06-22T00:12:36.647Z,15.44
2018-06-22T00:13:36.671Z,15.31
2018-06-22T00:14:36.686Z,15.31
2018-06-22T00:15:36.649Z,15.31
2018-06-22T00:16:36.628Z,15.25
2018-06-22T00:17:36.647Z,15.31
2018-06-22T00:18:36.626Z,15.31
2018-06-22T00:19:36.650Z,15.25
2018-06-22T00:20:36.685Z,15.19
2018-06-22T00:21:36.635Z,15.13
2018-06-22T00:22:36.681Z,15.19
2018-06-22T00:23:36.640Z,15.13
2018-06-22T00:24:36.772Z,15.06
2018-06-22T00:25:36.652Z,15
2018-06-22T00:26:36.632Z,15
2018-06-22T00:27:36.671Z,15
2018-06-22T00:28:36.649Z,15
2018-06-22T00:29:36.678Z,15
2018-06-22T00:30:36.666Z,14.87
2018-06-22T00:31:36.642Z,14.87
2018-06-22T00:32:36.736Z,14.81
2018-06-22T00:33:36.699Z,14.81
2018-06-22T00:34:36.673Z,14.81
2018-06-22T00:35:36.679Z,14.75
2018-06-22T00:36:36.664Z,14.69
2018-06-22T00:37:36.641Z,14.69
2018-06-22T00:38:36.669Z,14.69
2018-06-22T00:39:36.674Z,14.69
2018-06-22T00:40:36.695Z,14.63
2018-06-22T00:41:36.678Z,14.56
2018-06-22T00:42:36.656Z,14.56
2018-06-22T00:43:36.638Z,14.5
2018-06-22T00:44:36.671Z,14.44
2018-06-22T00:45:36.665Z,14.5
2018-06-22T00:46:36.681Z,14.5
2018-06-22T00:47:36.652Z,14.56
2018-06-22T00:48:36.727Z,14.56
2018-06-22T00:49:36.710Z,14.56
2018-06-22T00:50:36.676Z,14.5
2018-06-22T00:51:36.643Z,14.56
2018-06-22T00:52:36.685Z,14.63
2018-06-22T00:53:36.701Z,14.56
2018-06-22T00:54:36.642Z,14.56
2018-06-22T00:55:36.833Z,14.5
2018-06-22T00:56:36.660Z,14.44
2018-06-22T00:57:36.699Z,14.5
2018-06-22T00:58:36.657Z,14.44
2018-06-22T00:59:36.669Z,14.38
2018-06-22T01:00:36.693Z,14.38
2018-06-22T01:01:36.638Z,14.38
2018-06-22T01:02:36.675Z,14.38
2018-06-22T01:03:36.679Z,14.25
2018-06-22T01:04:36.680Z,14.31
2018-06-22T01:05:36.709Z,14.31
2018-06-22T01:06:36.685Z,14.25
2018-06-22T01:07:36.685Z,14.25
2018-06-22T01:08:36.668Z,14.13
2018-06-22T01:09:36.682Z,14.19
2018-06-22T01:10:36.672Z,14.13
2018-06-22T01:11:36.665Z,14.13
2018-06-22T01:12:36.692Z,14.13
2018-06-22T01:13:36.679Z,14.13
2018-06-22T01:14:36.662Z,14.13
2018-06-22T01:15:36.658Z,14.13
2018-06-22T01:16:36.656Z,14.06
2018-06-22T01:17:36.688Z,14.06
2018-06-22T01:18:36.684Z,14.06
2018-06-22T01:19:36.700Z,14.13
2018-06-22T01:20:36.709Z,14.13
2018-06-22T01:21:36.750Z,14.13
2018-06-22T01:22:37.007Z,14.13
2018-06-22T01:23:36.685Z,14.19
2018-06-22T01:24:36.683Z,14.13
2018-06-22T01:25:36.694Z,14.13
2018-06-22T01:26:36.697Z,14.19
2018-06-22T01:27:36.732Z,14.25
2018-06-22T01:28:36.713Z,14.19
2018-06-22T01:29:36.676Z,14.19
2018-06-22T01:30:36.705Z,14.19
2018-06-22T01:31:36.810Z,14.13
2018-06-22T01:32:36.656Z,14.13
2018-06-22T01:33:36.670Z,14.13
2018-06-22T01:34:36.723Z,14.06
2018-06-22T01:35:36.731Z,14
2018-06-22T01:36:36.690Z,14.06
2018-06-22T01:37:36.653Z,14.06
2018-06-22T01:38:36.696Z,14
2018-06-22T01:39:36.707Z,14
2018-06-22T01:40:36.694Z,14
2018-06-22T01:41:36.683Z,14
2018-06-22T01:42:36.703Z,14
2018-06-22T01:43:36.880Z,14
2018-06-22T01:44:36.700Z,13.94
2018-06-22T01:45:36.670Z,13.94
2018-06-22T01:46:36.818Z,13.94
2018-06-22T01:47:36.661Z,13.88
2018-06-22T01:48:36.675Z,13.81
2018-06-22T01:49:36.702Z,13.81
2018-06-22T01:50:36.678Z,13.81
2018-06-22T01:51:36.707Z,13.81
2018-06-22T01:52:36.864Z,13.69
2018-06-22T01:53:36.696Z,13.69
2018-06-22T01:54:36.708Z,13.62
2018-06-22T01:55:36.751Z,13.69
2018-06-22T01:56:36.696Z,13.75
2018-06-22T01:57:36.790Z,13.69
2018-06-22T01:58:36.760Z,13.69
2018-06-22T01:59:36.741Z,13.69
2018-06-22T02:00:36.775Z,13.69
2018-06-22T02:01:36.717Z,13.62
2018-06-22T02:02:36.736Z,13.62
2018-06-22T02:03:36.692Z,13.62
2018-06-22T02:04:36.707Z,13.62
2018-06-22T02:05:36.746Z,13.5
2018-06-22T02:06:36.799Z,13.38
2018-06-22T02:07:36.746Z,13.38
2018-06-22T02:08:36.692Z,13.25
2018-06-22T02:09:36.678Z,13.25
2018-06-22T02:10:36.692Z,13.19
2018-06-22T02:11:36.697Z,13.06
2018-06-22T02:12:36.701Z,13
2018-06-22T02:13:36.699Z,12.94
2018-06-22T02:14:36.727Z,12.94
2018-06-22T02:15:36.693Z,13
2018-06-22T02:16:36.686Z,13
2018-06-22T02:17:36.705Z,12.88
2018-06-22T02:18:36.731Z,12.81
2018-06-22T02:19:36.716Z,12.81
2018-06-22T02:20:36.735Z,12.75
2018-06-22T02:21:36.708Z,12.69
2018-06-22T02:22:36.702Z,12.69
2018-06-22T02:23:36.701Z,12.63
2018-06-22T02:24:36.695Z,12.69
2018-06-22T02:25:36.723Z,12.63
2018-06-22T02:26:36.727Z,12.63
2018-06-22T02:27:36.730Z,12.5
2018-06-22T02:28:36.706Z,12.5
2018-06-22T02:29:36.707Z,12.5
2018-06-22T02:30:36.867Z,12.5
2018-06-22T02:31:36.721Z,12.5
2018-06-22T02:32:36.754Z,12.5
2018-06-22T02:33:36.772Z,12.5
2018-06-22T02:34:36.721Z,12.56
2018-06-22T02:35:36.765Z,12.56
2018-06-22T02:36:36.799Z,12.63
2018-06-22T02:37:36.743Z,12.69
2018-06-22T02:38:36.728Z,12.75
2018-06-22T02:39:36.741Z,12.75
2018-06-22T02:40:36.806Z,12.75
2018-06-22T02:41:36.772Z,12.81
2018-06-22T02:42:36.752Z,12.81
2018-06-22T02:43:36.730Z,12.81
2018-06-22T02:44:36.696Z,12.81
2018-06-22T02:45:36.748Z,12.81
2018-06-22T02:46:36.733Z,12.88
2018-06-22T02:47:36.787Z,12.75
2018-06-22T02:48:36.767Z,12.63
2018-06-22T02:49:36.727Z,12.63
2018-06-22T02:50:36.818Z,12.56
2018-06-22T02:51:36.856Z,12.5
2018-06-22T02:52:36.773Z,12.5
2018-06-22T02:53:36.808Z,12.44
2018-06-22T02:54:36.739Z,12.44
2018-06-22T02:55:36.881Z,12.44
2018-06-22T02:56:36.748Z,12.37
2018-06-22T02:57:36.806Z,12.44
2018-06-22T02:58:36.767Z,12.37
2018-06-22T02:59:36.793Z,12.37
2018-06-22T03:00:36.846Z,12.44
2018-06-22T03:01:36.830Z,12.31
2018-06-22T03:02:36.769Z,12.31
2018-06-22T03:03:36.776Z,12.25
2018-06-22T03:04:36.758Z,12.19
2018-06-22T03:05:36.862Z,12.19
2018-06-22T03:06:36.792Z,12.13
2018-06-22T03:07:36.766Z,12.13
2018-06-22T03:08:36.768Z,12.13
2018-06-22T03:09:36.782Z,12.06
2018-06-22T03:10:36.836Z,12.13
2018-06-22T03:11:36.872Z,12.13
2018-06-22T03:12:36.827Z,12.19
2018-06-22T03:13:36.778Z,12.25
2018-06-22T03:14:36.927Z,12.19
2018-06-22T03:15:36.970Z,12.19
2018-06-22T03:16:36.736Z,12.19
2018-06-22T03:17:36.830Z,12.13
2018-06-22T03:18:36.751Z,12.25
2018-06-22T03:19:36.750Z,12.25
2018-06-22T03:20:36.789Z,12.25
2018-06-22T03:21:36.761Z,12.25
2018-06-22T03:22:36.760Z,12.19
2018-06-22T03:23:36.778Z,12.13
2018-06-22T03:24:36.785Z,12.19
2018-06-22T03:25:36.790Z,12.19
2018-06-22T03:26:36.741Z,12.13
2018-06-22T03:27:36.741Z,12.13
2018-06-22T03:28:36.759Z,12.13
2018-06-22T03:29:36.785Z,12.13
2018-06-22T03:30:36.868Z,12.13
2018-06-22T03:31:36.760Z,12.06
2018-06-22T03:32:36.753Z,12.06
2018-06-22T03:33:36.746Z,12.06
2018-06-22T03:34:36.754Z,12.13
2018-06-22T03:35:36.787Z,12.13
2018-06-22T03:36:36.763Z,12.13
2018-06-22T03:37:36.745Z,12.13
2018-06-22T03:38:36.804Z,12.13
2018-06-22T03:39:37.856Z,12.06
2018-06-22T03:40:36.860Z,12
2018-06-22T03:41:36.752Z,12
2018-06-22T03:42:36.783Z,12.06
2018-06-22T03:43:36.787Z,12
2018-06-22T03:44:36.773Z,12.06
2018-06-22T03:45:36.779Z,12.06
2018-06-22T03:46:36.764Z,12.13
2018-06-22T03:47:36.763Z,12.19
2018-06-22T03:48:36.809Z,12.13
2018-06-22T03:49:36.796Z,12.19
2018-06-22T03:50:36.777Z,12.25
2018-06-22T03:51:36.894Z,12.25
2018-06-22T03:52:36.762Z,12.25
2018-06-22T03:53:36.766Z,12.25
2018-06-22T03:54:36.806Z,12.37
2018-06-22T03:55:36.790Z,12.31
2018-06-22T03:56:36.769Z,12.37
2018-06-22T03:57:36.805Z,12.37
2018-06-22T03:58:36.801Z,12.37
2018-06-22T03:59:36.791Z,12.44
2018-06-22T04:00:36.860Z,12.5
2018-06-22T04:01:36.765Z,12.56
2018-06-22T04:02:36.792Z,12.5
2018-06-22T04:03:36.789Z,12.5
2018-06-22T04:04:36.780Z,12.5
2018-06-22T04:05:36.804Z,12.56
2018-06-22T04:06:36.790Z,12.63
2018-06-22T04:07:36.799Z,12.5
2018-06-22T04:08:36.831Z,12.5
2018-06-22T04:09:36.811Z,12.5
2018-06-22T04:10:36.780Z,12.5
2018-06-22T04:11:36.857Z,12.5
2018-06-22T04:12:36.796Z,12.5
2018-06-22T04:13:36.812Z,12.56
2018-06-22T04:14:36.818Z,12.5
2018-06-22T04:15:36.785Z,12.5
2018-06-22T04:16:36.822Z,12.5
2018-06-22T04:17:36.793Z,12.5
2018-06-22T04:18:36.786Z,12.56
2018-06-22T04:19:36.787Z,12.5
2018-06-22T04:20:36.841Z,12.37
2018-06-22T04:21:36.786Z,12.31
2018-06-22T04:22:36.769Z,12.19
2018-06-22T04:23:36.807Z,12.13
2018-06-22T04:24:36.806Z,12.13
2018-06-22T04:25:36.810Z,12.19
2018-06-22T04:26:36.793Z,12.06
2018-06-22T04:27:36.824Z,12.06
2018-06-22T04:28:36.932Z,12.13
2018-06-22T04:29:36.777Z,12.06
2018-06-22T04:30:36.794Z,12.06
2018-06-22T04:31:36.788Z,12.06
2018-06-22T04:32:36.803Z,12.13
2018-06-22T04:33:36.782Z,12.06
2018-06-22T04:34:36.871Z,12.13
2018-06-22T04:35:36.804Z,12.13
2018-06-22T04:36:36.859Z,12.06
2018-06-22T04:37:36.801Z,12.06
2018-06-22T04:38:37.271Z,12.06
2018-06-22T04:39:36.836Z,12.19
2018-06-22T04:40:36.793Z,12.13
2018-06-22T04:41:36.808Z,12.19
2018-06-22T04:42:36.827Z,12.19
2018-06-22T04:43:36.817Z,12.19
2018-06-22T04:44:36.824Z,12.25
2018-06-22T04:45:36.807Z,12.19
2018-06-22T04:46:36.857Z,12.25
2018-06-22T04:47:37.233Z,12.25
2018-06-22T04:48:36.819Z,12.25
2018-06-22T04:49:36.849Z,12.31
2018-06-22T04:50:36.824Z,12.31
2018-06-22T04:51:36.989Z,12.37
2018-06-22T04:52:36.828Z,12.37
2018-06-22T04:53:36.846Z,12.44
2018-06-22T04:54:36.910Z,12.5
2018-06-22T04:55:36.856Z,12.5
2018-06-22T04:56:36.853Z,12.63
2018-06-22T04:57:36.827Z,12.56
2018-06-22T04:58:36.815Z,12.69
2018-06-22T04:59:36.837Z,12.69
2018-06-22T05:00:36.818Z,12.63
2018-06-22T05:01:36.864Z,12.69
2018-06-22T05:02:36.832Z,12.63
2018-06-22T05:03:37.111Z,12.69
2018-06-22T05:04:36.829Z,12.75
2018-06-22T05:05:36.800Z,12.75
2018-06-22T05:06:36.837Z,12.81
2018-06-22T05:07:36.827Z,12.81
2018-06-22T05:08:36.829Z,12.88
2018-06-22T05:09:36.845Z,12.94
2018-06-22T05:10:36.855Z,12.94
2018-06-22T05:11:36.823Z,13
2018-06-22T05:12:36.818Z,13
2018-06-22T05:13:37.000Z,13
2018-06-22T05:14:36.886Z,12.94
2018-06-22T05:15:37.240Z,12.88
2018-06-22T05:16:36.826Z,12.94
2018-06-22T05:17:36.836Z,12.88
2018-06-22T05:18:36.888Z,12.94
2018-06-22T05:19:36.839Z,12.94
2018-06-22T05:20:36.844Z,12.94
2018-06-22T05:21:36.804Z,12.94
2018-06-22T05:22:37.340Z,12.94
2018-06-22T05:23:36.892Z,12.94
2018-06-22T05:24:36.814Z,13
2018-06-22T05:25:36.859Z,13.06
2018-06-22T05:26:36.868Z,13
2018-06-22T05:27:36.928Z,13.06
2018-06-22T05:28:36.841Z,13.06
2018-06-22T05:29:36.813Z,13
2018-06-22T05:30:36.890Z,13.06
2018-06-22T05:31:36.967Z,13.06
2018-06-22T05:32:36.833Z,13.13
2018-06-22T05:33:36.829Z,13.13
2018-06-22T05:34:36.832Z,13.06
2018-06-22T05:35:36.865Z,13.13
2018-06-22T05:36:36.881Z,13.13
2018-06-22T05:37:36.806Z,13.19
2018-06-22T05:38:36.851Z,13.13
2018-06-22T05:39:36.818Z,13.19
2018-06-22T05:40:36.862Z,13.19
2018-06-22T05:41:36.918Z,13.19
2018-06-22T05:42:36.884Z,13.19
2018-06-22T05:43:36.836Z,13.19
2018-06-22T05:44:36.849Z,13.19
2018-06-22T05:45:36.822Z,13.25
2018-06-22T05:46:36.897Z,13.25
2018-06-22T05:47:36.855Z,13.31
2018-06-22T05:48:36.858Z,13.31
2018-06-22T05:49:36.862Z,13.38
2018-06-22T05:50:37.266Z,13.38
2018-06-22T05:51:36.873Z,13.38
2018-06-22T05:52:36.854Z,13.44
2018-06-22T05:53:36.962Z,13.5
2018-06-22T05:54:36.900Z,13.5
2018-06-22T05:55:37.029Z,13.5
2018-06-22T05:56:37.243Z,13.5
2018-06-22T05:57:36.842Z,13.5
2018-06-22T05:58:36.839Z,13.44
2018-06-22T05:59:36.828Z,13.5
2018-06-22T06:00:36.836Z,13.44
2018-06-22T06:01:37.173Z,13.44
2018-06-22T06:02:36.847Z,13.5
2018-06-22T06:03:37.576Z,13.5
2018-06-22T06:04:36.868Z,13.5
2018-06-22T06:05:36.855Z,13.5
2018-06-22T06:06:36.844Z,13.56
2018-06-22T06:07:37.034Z,13.5
2018-06-22T06:08:36.898Z,13.56
2018-06-22T06:09:36.915Z,13.56
2018-06-22T06:10:36.901Z,13.5
2018-06-22T06:11:36.837Z,13.56
2018-06-22T06:12:37.565Z,13.5
2018-06-22T06:13:36.874Z,13.44
2018-06-22T06:14:36.957Z,13.38
2018-06-22T06:15:36.924Z,13.38
2018-06-22T06:16:36.891Z,13.31
2018-06-22T06:17:36.899Z,13.31
2018-06-22T06:18:36.843Z,13.38
2018-06-22T06:19:36.951Z,13.38
2018-06-22T06:20:36.908Z,13.38
2018-06-22T06:21:36.883Z,13.5
2018-06-22T06:22:37.036Z,13.5
2018-06-22T06:23:36.953Z,13.5
2018-06-22T06:24:36.884Z,13.5
2018-06-22T06:25:36.832Z,13.56
2018-06-22T06:26:36.841Z,13.5
2018-06-22T06:27:36.916Z,13.44
2018-06-22T06:28:36.883Z,13.56
2018-06-22T06:29:36.920Z,13.5
2018-06-22T06:30:36.851Z,13.5
2018-06-22T06:31:36.848Z,13.62
2018-06-22T06:32:36.870Z,13.62
2018-06-22T06:33:37.172Z,13.69
2018-06-22T06:34:36.874Z,13.81
2018-06-22T06:35:36.868Z,13.75
2018-06-22T06:36:36.887Z,13.81
2018-06-22T06:37:37.261Z,13.81
2018-06-22T06:38:36.860Z,13.81
2018-06-22T06:39:36.887Z,13.81
2018-06-22T06:40:36.899Z,13.81
2018-06-22T06:41:36.890Z,13.88
2018-06-22T06:42:36.889Z,13.88
2018-06-22T06:43:36.903Z,13.88
2018-06-22T06:44:36.889Z,13.88
2018-06-22T06:45:37.402Z,13.94
2018-06-22T06:46:36.878Z,13.88
2018-06-22T06:47:36.869Z,13.88
2018-06-22T06:48:36.871Z,13.94
2018-06-22T06:49:37.685Z,14
2018-06-22T06:50:36.907Z,14
2018-06-22T06:51:36.886Z,14
2018-06-22T06:52:36.885Z,14.06
2018-06-22T06:53:36.920Z,14.06
2018-06-22T06:54:36.937Z,14
2018-06-22T06:55:36.926Z,14.06
2018-06-22T06:56:36.956Z,14.13
2018-06-22T06:57:36.886Z,14.13
2018-06-22T06:58:36.897Z,14.19
2018-06-22T06:59:36.884Z,14.19
2018-06-22T07:00:36.887Z,14.31
2018-06-22T07:01:36.937Z,14.38
2018-06-22T07:02:37.747Z,14.38
2018-06-22T07:03:36.904Z,14.25
2018-06-22T07:04:36.854Z,14.31
2018-06-22T07:05:36.909Z,14.31
2018-06-22T07:06:36.892Z,14.38
2018-06-22T07:07:36.910Z,14.44
2018-06-22T07:08:36.937Z,14.44
2018-06-22T07:09:36.875Z,14.44
2018-06-22T07:10:36.967Z,14.5
2018-06-22T07:11:36.912Z,14.56
2018-06-22T07:12:36.869Z,14.63
2018-06-22T07:13:36.929Z,14.69
2018-06-22T07:14:36.908Z,14.75
2018-06-22T07:15:37.113Z,14.81
2018-06-22T07:16:36.899Z,14.94
2018-06-22T07:17:36.873Z,14.94
2018-06-22T07:18:36.905Z,14.87
2018-06-22T07:19:36.879Z,14.87
2018-06-22T07:20:36.874Z,14.94
2018-06-22T07:21:36.905Z,14.94
2018-06-22T07:22:36.874Z,14.94
2018-06-22T07:23:36.891Z,14.94
2018-06-22T07:24:36.991Z,14.87
2018-06-22T07:25:37.113Z,14.81
2018-06-22T07:26:36.902Z,14.81
2018-06-22T07:27:36.939Z,14.94
2018-06-22T07:28:36.887Z,14.94
2018-06-22T07:29:36.946Z,14.94
2018-06-22T07:30:37.216Z,14.87
2018-06-22T07:31:36.874Z,14.81
2018-06-22T07:32:36.889Z,14.75
2018-06-22T07:33:36.916Z,14.75
2018-06-22T07:34:36.868Z,14.63
2018-06-22T07:35:36.932Z,14.63
2018-06-22T07:36:37.030Z,14.63
2018-06-22T07:37:36.902Z,14.63
2018-06-22T07:38:37.118Z,14.63
2018-06-22T07:39:36.924Z,14.56
2018-06-22T07:40:37.059Z,14.56
2018-06-22T07:41:37.098Z,14.56
2018-06-22T07:42:36.910Z,14.56
2018-06-22T07:43:36.988Z,14.5
2018-06-22T07:44:36.896Z,14.5
2018-06-22T07:45:36.950Z,14.56
2018-06-22T07:46:36.953Z,14.56
2018-06-22T07:47:37.117Z,14.63
2018-06-22T07:48:36.906Z,14.63
2018-06-22T07:49:36.962Z,14.69
2018-06-22T07:50:36.881Z,14.81
2018-06-22T07:51:36.896Z,14.87
2018-06-22T07:52:36.910Z,14.94
2018-06-22T07:53:36.947Z,14.87
2018-06-22T07:54:36.921Z,14.94
2018-06-22T07:55:36.917Z,15
2018-06-22T07:56:36.931Z,14.94
2018-06-22T07:57:36.895Z,15.06
2018-06-22T07:58:37.403Z,15.06
2018-06-22T07:59:36.903Z,15.06
2018-06-22T08:00:36.944Z,15.06
2018-06-22T08:01:36.948Z,15.06
2018-06-22T08:02:37.023Z,15.06
2018-06-22T08:03:36.937Z,15.13
2018-06-22T08:04:37.000Z,15.13
2018-06-22T08:05:36.984Z,15.06
2018-06-22T08:06:36.957Z,15.13
2018-06-22T08:07:36.984Z,15.06
2018-06-22T08:08:36.924Z,15.13
2018-06-22T08:09:37.066Z,15.13
2018-06-22T08:10:37.093Z,15.19
2018-06-22T08:11:36.935Z,15.19
2018-06-22T08:12:36.989Z,15.19
2018-06-22T08:13:36.977Z,15.19
2018-06-22T08:14:37.105Z,15.13
2018-06-22T08:15:36.990Z,15.19
2018-06-22T08:16:37.016Z,15.19
2018-06-22T08:17:37.461Z,15.19
2018-06-22T08:18:37.098Z,15.19
2018-06-22T08:19:36.928Z,15.13
2018-06-22T08:20:37.070Z,15.13
2018-06-22T08:21:37.415Z,15.06
2018-06-22T08:22:36.995Z,15.06
2018-06-22T08:23:37.690Z,15.06
2018-06-22T08:24:36.953Z,15.06
2018-06-22T08:25:37.140Z,15.06
2018-06-22T08:26:37.247Z,15.13
2018-06-22T08:27:37.066Z,15.19
2018-06-22T08:28:36.918Z,15.13
2018-06-22T08:29:37.050Z,15.13
2018-06-22T08:30:37.078Z,15.06
2018-06-22T08:31:37.135Z,15.06
2018-06-22T08:32:37.040Z,15.19
2018-06-22T08:33:36.994Z,15.25
2018-06-22T08:34:36.941Z,15.31
2018-06-22T08:35:37.112Z,15.38
2018-06-22T08:36:36.960Z,15.5
2018-06-22T08:37:36.952Z,15.44
2018-06-22T08:38:37.032Z,15.5
2018-06-22T08:39:36.917Z,15.56
2018-06-22T08:40:37.176Z,15.81
2018-06-22T08:41:38.106Z,15.81
2018-06-22T08:42:37.198Z,15.94
2018-06-22T08:43:36.960Z,15.94
2018-06-22T08:44:36.944Z,15.94
2018-06-22T08:45:37.387Z,16
2018-06-22T08:46:37.110Z,15.94
2018-06-22T08:47:37.193Z,15.81
2018-06-22T08:48:37.025Z,15.81
2018-06-22T08:49:37.079Z,15.75
2018-06-22T08:50:36.934Z,15.75
2018-06-22T08:51:37.157Z,15.81
2018-06-22T08:52:37.094Z,15.81
2018-06-22T08:53:37.096Z,15.75
2018-06-22T08:54:37.035Z,15.75
2018-06-22T08:55:37.382Z,15.81
2018-06-22T08:56:37.315Z,15.81
2018-06-22T08:57:36.984Z,15.81
2018-06-22T08:58:36.935Z,15.69
2018-06-22T08:59:37.064Z,15.63
2018-06-22T09:00:36.989Z,15.63
2018-06-22T09:01:36.985Z,15.69
2018-06-22T09:02:36.968Z,15.69
2018-06-22T09:03:37.059Z,15.75
2018-06-22T09:04:36.972Z,15.75
2018-06-22T09:05:36.968Z,15.88
2018-06-22T09:06:36.998Z,15.94
2018-06-22T09:07:36.941Z,16
2018-06-22T09:08:36.946Z,16.06
2018-06-22T09:09:36.954Z,16.12
2018-06-22T09:10:36.961Z,16.12
2018-06-22T09:11:36.929Z,16.12
2018-06-22T09:12:37.372Z,16.12
2018-06-22T09:13:36.956Z,16.06
2018-06-22T09:14:37.947Z,16
2018-06-22T09:15:36.989Z,15.94
2018-06-22T09:16:36.955Z,15.75
2018-06-22T09:17:37.018Z,15.69
2018-06-22T09:18:37.054Z,15.69
2018-06-22T09:19:37.337Z,15.69
2018-06-22T09:20:36.968Z,15.75
2018-06-22T09:21:37.065Z,15.75
2018-06-22T09:22:37.052Z,15.75
2018-06-22T09:23:37.209Z,15.81
2018-06-22T09:24:37.053Z,15.81
2018-06-22T09:25:36.955Z,15.81
2018-06-22T09:26:36.986Z,15.88
2018-06-22T09:27:36.970Z,15.88
2018-06-22T09:28:37.081Z,15.94
2018-06-22T09:29:37.144Z,15.88
2018-06-22T09:30:37.115Z,15.81
2018-06-22T09:31:36.951Z,15.75
2018-06-22T09:32:36.959Z,15.81
2018-06-22T09:33:36.964Z,15.81
2018-06-22T09:34:37.011Z,15.94
2018-06-22T09:35:37.103Z,16
2018-06-22T09:36:37.046Z,16
2018-06-22T09:37:37.079Z,16.12
2018-06-22T09:38:37.078Z,16.19
2018-06-22T09:39:37.292Z,16.12
2018-06-22T09:40:37.069Z,16.19
2018-06-22T09:41:37.047Z,16.06
2018-06-22T09:42:37.625Z,16.06
2018-06-22T09:43:37.097Z,16.12
2018-06-22T09:44:37.545Z,16.25
2018-06-22T09:45:37.055Z,16.31
2018-06-22T09:46:37.022Z,16.31
2018-06-22T09:47:37.290Z,16.25
2018-06-22T09:48:37.783Z,16.31
2018-06-22T09:49:36.995Z,16.25
2018-06-22T09:50:36.982Z,16.19
2018-06-22T09:51:37.053Z,16.19
2018-06-22T09:52:37.025Z,16.19
2018-06-22T09:53:37.020Z,16.25
2018-06-22T09:54:37.058Z,16.31
2018-06-22T09:55:37.094Z,16.31
2018-06-22T09:56:36.958Z,16.31
2018-06-22T09:57:37.095Z,16.37
2018-06-22T09:58:36.986Z,16.44
2018-06-22T09:59:37.203Z,16.37
2018-06-22T10:00:37.009Z,16.5
2018-06-22T10:01:37.068Z,16.62
2018-06-22T10:02:37.008Z,16.75
2018-06-22T10:03:37.041Z,16.81
2018-06-22T10:04:37.172Z,16.69
2018-06-22T10:05:37.323Z,16.75
2018-06-22T10:06:37.605Z,16.75
2018-06-22T10:07:37.102Z,16.87
2018-06-22T10:08:37.178Z,16.87
2018-06-22T10:09:36.968Z,16.81
2018-06-22T10:10:37.011Z,16.81
2018-06-22T10:11:37.020Z,16.87
2018-06-22T10:12:37.132Z,16.94
2018-06-22T10:13:37.515Z,17.06
2018-06-22T10:14:36.985Z,17.12
2018-06-22T10:15:36.992Z,17.12
2018-06-22T10:16:37.011Z,17.19
2018-06-22T10:17:36.967Z,17.19
2018-06-22T10:18:37.066Z,17.12
2018-06-22T10:19:37.286Z,17.12
2018-06-22T10:20:36.979Z,17.06
2018-06-22T10:21:37.012Z,17
2018-06-22T10:22:37.029Z,16.94
2018-06-22T10:23:37.044Z,17
2018-06-22T10:24:37.084Z,17
2018-06-22T10:25:37.061Z,17
2018-06-22T10:26:37.120Z,17
2018-06-22T10:27:36.989Z,17
2018-06-22T10:28:37.109Z,17
2018-06-22T10:29:37.028Z,17.12
2018-06-22T10:30:37.001Z,17.12
2018-06-22T10:31:37.002Z,17.19
2018-06-22T10:32:37.034Z,17
2018-06-22T10:33:37.182Z,16.94
2018-06-22T10:34:37.242Z,17
2018-06-22T10:35:38.360Z,17
2018-06-22T10:36:37.331Z,17.06
2018-06-22T10:37:37.339Z,17.12
2018-06-22T10:38:37.118Z,17.19
2018-06-22T10:39:37.115Z,17.25
2018-06-22T10:40:37.289Z,17.25
2018-06-22T10:41:37.089Z,17.31
2018-06-22T10:42:37.023Z,17.19
2018-06-22T10:43:37.132Z,17.12
2018-06-22T10:44:37.227Z,17.12
2018-06-22T10:45:37.044Z,17.19
2018-06-22T10:46:37.154Z,17.19
2018-06-22T10:47:37.263Z,17.19
2018-06-22T10:48:37.146Z,17.19
2018-06-22T10:49:37.284Z,17.19
2018-06-22T10:50:37.180Z,17.19
2018-06-22T10:51:37.815Z,17.19
2018-06-22T10:52:37.785Z,17.31
2018-06-22T10:53:37.122Z,17.44
2018-06-22T10:54:37.053Z,17.44
2018-06-22T10:55:37.230Z,17.44
2018-06-22T10:56:37.017Z,17.37
2018-06-22T10:57:37.227Z,17.44
2018-06-22T10:58:37.101Z,17.37
2018-06-22T10:59:37.692Z,17.44
2018-06-22T11:00:37.248Z,17.56
2018-06-22T11:01:37.152Z,17.75
2018-06-22T11:02:37.277Z,17.81
2018-06-22T11:03:37.176Z,17.75
2018-06-22T11:04:37.050Z,17.75
2018-06-22T11:05:37.415Z,17.75
2018-06-22T11:06:37.291Z,17.81
2018-06-22T11:07:37.133Z,17.75
2018-06-22T11:08:37.085Z,17.75
2018-06-22T11:09:37.208Z,17.75
2018-06-22T11:10:37.098Z,17.75
2018-06-22T11:11:37.260Z,17.69
2018-06-22T11:12:37.229Z,17.75
2018-06-22T11:13:37.177Z,17.75
2018-06-22T11:14:37.078Z,17.75
2018-06-22T11:15:37.147Z,17.81
2018-06-22T11:16:37.575Z,17.81
2018-06-22T11:17:37.160Z,17.81
2018-06-22T11:18:37.177Z,17.81
2018-06-22T11:19:37.091Z,17.75
2018-06-22T11:20:37.220Z,17.75
2018-06-22T11:21:37.051Z,17.75
2018-06-22T11:22:37.206Z,17.81
2018-06-22T11:23:37.223Z,18
2018-06-22T11:24:37.734Z,18.31
2018-06-22T11:25:37.078Z,18.44
2018-06-22T11:26:37.036Z,18.5
2018-06-22T11:27:37.083Z,18.75
2018-06-22T11:28:37.050Z,18.69
2018-06-22T11:29:37.054Z,18.75
2018-06-22T11:30:37.146Z,18.94
2018-06-22T11:31:37.265Z,18.81
2018-06-22T11:32:37.023Z,18.81
2018-06-22T11:33:37.168Z,18.75
2018-06-22T11:34:37.205Z,18.75
2018-06-22T11:35:37.057Z,18.75
2018-06-22T11:36:37.043Z,18.94
2018-06-22T11:37:37.194Z,18.87
2018-06-22T11:38:37.192Z,18.94
2018-06-22T11:39:37.020Z,19.06
2018-06-22T11:40:37.420Z,19
2018-06-22T11:41:37.224Z,18.94
2018-06-22T11:42:37.071Z,19
2018-06-22T11:43:37.348Z,19.12
2018-06-22T11:44:37.096Z,19.12
2018-06-22T11:45:37.111Z,19.06
2018-06-22T11:46:37.269Z,19.12
2018-06-22T11:47:37.081Z,19.06
2018-06-22T11:48:37.269Z,19
2018-06-22T11:49:37.166Z,19
2018-06-22T11:50:37.092Z,18.81
2018-06-22T11:51:37.124Z,18.75
2018-06-22T11:52:37.195Z,18.81
2018-06-22T11:53:37.415Z,18.87
2018-06-22T11:54:37.269Z,18.81
2018-06-22T11:55:37.116Z,18.87
2018-06-22T11:56:37.027Z,19
2018-06-22T11:57:37.109Z,19.06
2018-06-22T11:58:37.202Z,19.06
2018-06-22T11:59:37.069Z,19.12
2018-06-22T12:00:37.249Z,19.25
2018-06-22T12:01:37.409Z,19.31
2018-06-22T12:02:37.147Z,19.25
2018-06-22T12:03:37.165Z,19.25
2018-06-22T12:04:37.383Z,19.25
2018-06-22T12:05:37.071Z,19.25
2018-06-22T12:06:37.080Z,19.06
2018-06-22T12:07:37.106Z,19.25
2018-06-22T12:08:37.318Z,19
2018-06-22T12:09:37.071Z,19.06
2018-06-22T12:10:37.078Z,19.19
2018-06-22T12:11:37.150Z,19.12
2018-06-22T12:12:37.165Z,19.19
2018-06-22T12:13:37.053Z,19.31
2018-06-22T12:14:37.060Z,19.31
2018-06-22T12:15:37.521Z,19.25
2018-06-22T12:16:37.096Z,19.12
2018-06-22T12:17:37.071Z,19.12
2018-06-22T12:18:37.169Z,19
2018-06-22T12:19:37.156Z,19.12
2018-06-22T12:20:37.082Z,19.25
2018-06-22T12:21:37.095Z,19.25
2018-06-22T12:22:37.112Z,19.25
2018-06-22T12:23:37.233Z,19.31
2018-06-22T12:24:37.117Z,19.31
2018-06-22T12:25:37.107Z,19.31
2018-06-22T12:26:37.224Z,19.31
2018-06-22T12:27:37.654Z,19.25
2018-06-22T12:28:37.051Z,19
2018-06-22T12:29:37.060Z,18.94
2018-06-22T12:30:37.112Z,18.94
2018-06-22T12:31:37.259Z,18.87
2018-06-22T12:32:37.134Z,18.94
2018-06-22T12:33:37.272Z,19.06
2018-06-22T12:34:37.046Z,19.06
2018-06-22T12:35:37.184Z,19.12
2018-06-22T12:36:37.087Z,19.06
2018-06-22T12:37:37.107Z,19
2018-06-22T12:38:37.486Z,19
2018-06-22T12:39:37.662Z,18.94
2018-06-22T12:40:37.330Z,18.87
2018-06-22T12:41:37.343Z,18.87
2018-06-22T12:42:37.447Z,18.81
2018-06-22T12:43:37.494Z,18.81
2018-06-22T12:44:37.267Z,18.75
2018-06-22T12:45:37.123Z,18.62
2018-06-22T12:46:37.106Z,18.62
2018-06-22T12:47:37.275Z,18.69
2018-06-22T12:48:37.090Z,18.69
2018-06-22T12:49:37.171Z,18.75
2018-06-22T12:50:37.907Z,18.87
2018-06-22T12:51:37.070Z,18.94
2018-06-22T12:52:37.100Z,19.06
2018-06-22T12:53:37.087Z,19
2018-06-22T12:54:37.095Z,19
2018-06-22T12:55:37.145Z,19
2018-06-22T12:56:37.227Z,18.87
2018-06-22T12:57:37.574Z,18.87
2018-06-22T12:58:38.357Z,18.81
2018-06-22T12:59:37.314Z,18.87
2018-06-22T13:00:37.207Z,19